sensor_id;sensor_type;location;lat;lon;timestamp;temperature;humidity
53410;DHT22;66590;50.734;4.246;2023-07-30T00:00:06;16.40;99.90
53410;DHT22;66590;50.734;4.246;2023-07-30T00:02:33;16.40;99.90
53410;DHT22;66590;50.734;4.246;2023-07-30T00:05:00;16.40;99.90
53410;DHT22;66590;50.734;4.246;2023-07-30T00:07:29;16.50;99.90
53410;DHT22;66590;50.734;4.246;2023-07-30T00:09:55;16.50;99.90
53410;DHT22;66590;50.734;4.246;2023-07-30T00:12:22;16.50;99.90
53410;DHT22;66590;50.734;4.246;2023-07-30T00:14:49;16.50;99.90
53410;DHT22;66590;50.734;4.246;2023-07-30T00:17:16;16.50;99.90
53410;DHT22;66590;50.734;4.246;2023-07-30T00:19:43;16.50;99.90
53410;DHT22;66590;50.734;4.246;2023-07-30T00:22:10;16.60;99.90
53410;DHT22;66590;50.734;4.246;2023-07-30T00:24:38;16.80;99.90
53410;DHT22;66590;50.734;4.246;2023-07-30T00:27:06;16.70;99.90
53410;DHT22;66590;50.734;4.246;2023-07-30T00:29:33;16.70;99.90
53410;DHT22;66590;50.734;4.246;2023-07-30T00:32:00;16.80;99.90
53410;DHT22;66590;50.734;4.246;2023-07-30T00:34:27;16.90;99.90
53410;DHT22;66590;50.734;4.246;2023-07-30T00:36:54;16.90;99.90
53410;DHT22;66590;50.734;4.246;2023-07-30T00:39:21;16.90;99.90
53410;DHT22;66590;50.734;4.246;2023-07-30T00:41:49;16.80;99.90
53410;DHT22;66590;50.734;4.246;2023-07-30T00:44:17;16.80;99.90
53410;DHT22;66590;50.734;4.246;2023-07-30T00:46:44;16.70;99.90
53410;DHT22;66590;50.734;4.246;2023-07-30T00:49:11;16.70;99.90
53410;DHT22;66590;50.734;4.246;2023-07-30T00:51:38;16.70;99.90
53410;DHT22;66590;50.734;4.246;2023-07-30T00:54:07;16.80;99.90
53410;DHT22;66590;50.734;4.246;2023-07-30T00:56:34;16.90;99.90
53410;DHT22;66590;50.734;4.246;2023-07-30T00:59:03;17.00;99.90
53410;DHT22;66590;50.734;4.246;2023-07-30T01:01:33;17.00;99.90
53410;DHT22;66590;50.734;4.246;2023-07-30T01:04:01;17.00;99.90
53410;DHT22;66590;50.734;4.246;2023-07-30T01:06:28;16.90;99.90
53410;DHT22;66590;50.734;4.246;2023-07-30T01:08:55;16.90;99.90
53410;DHT22;66590;50.734;4.246;2023-07-30T01:11:22;17.00;99.90
53410;DHT22;66590;50.734;4.246;2023-07-30T01:13:50;17.00;99.90
53410;DHT22;66590;50.734;4.246;2023-07-30T01:16:18;16.90;99.90
53410;DHT22;66590;50.734;4.246;2023-07-30T01:18:45;16.90;99.90
53410;DHT22;66590;50.734;4.246;2023-07-30T01:21:14;16.80;99.90
53410;DHT22;66590;50.734;4.246;2023-07-30T01:23:41;16.90;99.90
53410;DHT22;66590;50.734;4.246;2023-07-30T01:26:12;16.90;99.90
53410;DHT22;66590;50.734;4.246;2023-07-30T01:28:43;16.90;99.90
53410;DHT22;66590;50.734;4.246;2023-07-30T01:31:15;17.00;99.90
53410;DHT22;66590;50.734;4.246;2023-07-30T01:33:46;16.90;99.90
53410;DHT22;66590;50.734;4.246;2023-07-30T01:36:16;17.00;99.90
53410;DHT22;66590;50.734;4.246;2023-07-30T01:38:44;16.90;99.90
53410;DHT22;66590;50.734;4.246;2023-07-30T01:41:11;16.90;99.90
53410;DHT22;66590;50.734;4.246;2023-07-30T01:43:38;16.80;99.90
53410;DHT22;66590;50.734;4.246;2023-07-30T01:46:05;16.80;99.90
53410;DHT22;66590;50.734;4.246;2023-07-30T01:48:32;16.80;99.90
53410;DHT22;66590;50.734;4.246;2023-07-30T01:50:59;17.00;99.90
53410;DHT22;66590;50.734;4.246;2023-07-30T01:53:28;17.00;99.90
53410;DHT22;66590;50.734;4.246;2023-07-30T01:55:54;17.00;99.90
53410;DHT22;66590;50.734;4.246;2023-07-30T01:58:21;16.90;99.90
53410;DHT22;66590;50.734;4.246;2023-07-30T02:00:48;16.90;99.90
53410;DHT22;66590;50.734;4.246;2023-07-30T02:03:15;16.90;99.90
53410;DHT22;66590;50.734;4.246;2023-07-30T02:05:42;17.00;99.90
53410;DHT22;66590;50.734;4.246;2023-07-30T02:08:09;17.00;99.90
53410;DHT22;66590;50.734;4.246;2023-07-30T02:10:37;16.80;99.90
53410;DHT22;66590;50.734;4.246;2023-07-30T02:13:04;16.80;99.90
53410;DHT22;66590;50.734;4.246;2023-07-30T02:15:31;16.70;99.90
53410;DHT22;66590;50.734;4.246;2023-07-30T02:17:58;16.80;99.90
53410;DHT22;66590;50.734;4.246;2023-07-30T02:20:25;16.70;99.90
53410;DHT22;66590;50.734;4.246;2023-07-30T02:22:52;16.70;99.90
53410;DHT22;66590;50.734;4.246;2023-07-30T02:25:19;16.60;99.90
53410;DHT22;66590;50.734;4.246;2023-07-30T02:27:47;16.60;99.90
53410;DHT22;66590;50.734;4.246;2023-07-30T02:30:14;16.50;99.90
53410;DHT22;66590;50.734;4.246;2023-07-30T02:32:41;16.50;99.90
53410;DHT22;66590;50.734;4.246;2023-07-30T02:35:08;16.50;99.90
53410;DHT22;66590;50.734;4.246;2023-07-30T02:37:35;16.50;99.90
53410;DHT22;66590;50.734;4.246;2023-07-30T02:40:03;16.40;99.90
53410;DHT22;66590;50.734;4.246;2023-07-30T02:42:30;16.50;99.90
53410;DHT22;66590;50.734;4.246;2023-07-30T02:44:59;16.50;99.90
53410;DHT22;66590;50.734;4.246;2023-07-30T02:47:26;16.40;99.90
53410;DHT22;66590;50.734;4.246;2023-07-30T02:49:53;16.40;99.90
53410;DHT22;66590;50.734;4.246;2023-07-30T02:52:20;16.50;99.90
53410;DHT22;66590;50.734;4.246;2023-07-30T02:54:47;16.50;99.90
53410;DHT22;66590;50.734;4.246;2023-07-30T02:57:14;16.50;99.90
53410;DHT22;66590;50.734;4.246;2023-07-30T02:59:41;16.50;99.90
53410;DHT22;66590;50.734;4.246;2023-07-30T03:02:09;16.40;99.90
53410;DHT22;66590;50.734;4.246;2023-07-30T03:04:36;16.40;99.90
53410;DHT22;66590;50.734;4.246;2023-07-30T03:07:04;16.30;99.90
53410;DHT22;66590;50.734;4.246;2023-07-30T03:09:31;16.30;99.90
53410;DHT22;66590;50.734;4.246;2023-07-30T03:11:58;16.30;99.90
53410;DHT22;66590;50.734;4.246;2023-07-30T03:14:26;16.20;99.90
53410;DHT22;66590;50.734;4.246;2023-07-30T03:16:53;16.20;99.90
53410;DHT22;66590;50.734;4.246;2023-07-30T03:19:21;16.20;99.90
53410;DHT22;66590;50.734;4.246;2023-07-30T03:21:48;16.20;99.90
53410;DHT22;66590;50.734;4.246;2023-07-30T03:24:15;16.20;99.90
53410;DHT22;66590;50.734;4.246;2023-07-30T03:26:42;16.20;99.90
53410;DHT22;66590;50.734;4.246;2023-07-30T03:29:09;16.20;99.90
53410;DHT22;66590;50.734;4.246;2023-07-30T03:31:36;16.10;99.90
53410;DHT22;66590;50.734;4.246;2023-07-30T03:34:04;16.00;99.90
53410;DHT22;66590;50.734;4.246;2023-07-30T03:36:32;16.00;99.90
53410;DHT22;66590;50.734;4.246;2023-07-30T03:38:59;15.90;99.90
53410;DHT22;66590;50.734;4.246;2023-07-30T03:41:26;16.00;99.90
53410;DHT22;66590;50.734;4.246;2023-07-30T03:43:53;16.00;99.90
53410;DHT22;66590;50.734;4.246;2023-07-30T03:46:20;16.00;99.90
53410;DHT22;66590;50.734;4.246;2023-07-30T03:48:47;15.90;99.90
53410;DHT22;66590;50.734;4.246;2023-07-30T03:51:14;15.90;99.90
53410;DHT22;66590;50.734;4.246;2023-07-30T03:53:42;15.80;99.90
53410;DHT22;66590;50.734;4.246;2023-07-30T03:56:09;15.80;99.90
53410;DHT22;66590;50.734;4.246;2023-07-30T03:58:36;15.80;99.90
53410;DHT22;66590;50.734;4.246;2023-07-30T04:01:03;15.80;99.90
53410;DHT22;66590;50.734;4.246;2023-07-30T04:03:30;15.80;99.90
53410;DHT22;66590;50.734;4.246;2023-07-30T04:05:58;15.80;99.90
53410;DHT22;66590;50.734;4.246;2023-07-30T04:08:25;15.70;99.90
53410;DHT22;66590;50.734;4.246;2023-07-30T04:10:53;15.70;99.90
53410;DHT22;66590;50.734;4.246;2023-07-30T04:13:20;15.70;99.90
53410;DHT22;66590;50.734;4.246;2023-07-30T04:15:47;15.70;99.90
53410;DHT22;66590;50.734;4.246;2023-07-30T04:18:14;15.70;99.90
53410;DHT22;66590;50.734;4.246;2023-07-30T04:20:41;15.70;99.90
53410;DHT22;66590;50.734;4.246;2023-07-30T04:23:08;15.70;99.90
53410;DHT22;66590;50.734;4.246;2023-07-30T04:25:35;15.70;99.90
53410;DHT22;66590;50.734;4.246;2023-07-30T04:28:04;15.60;99.90
53410;DHT22;66590;50.734;4.246;2023-07-30T04:30:31;15.60;99.90
53410;DHT22;66590;50.734;4.246;2023-07-30T04:32:58;15.60;99.90
53410;DHT22;66590;50.734;4.246;2023-07-30T04:35:25;15.60;99.90
53410;DHT22;66590;50.734;4.246;2023-07-30T04:37:52;15.60;99.90
53410;DHT22;66590;50.734;4.246;2023-07-30T04:40:19;15.60;99.90
53410;DHT22;66590;50.734;4.246;2023-07-30T04:42:46;15.70;99.90
53410;DHT22;66590;50.734;4.246;2023-07-30T04:45:15;15.60;99.90
53410;DHT22;66590;50.734;4.246;2023-07-30T04:47:42;15.60;99.90
53410;DHT22;66590;50.734;4.246;2023-07-30T04:50:09;15.70;99.90
53410;DHT22;66590;50.734;4.246;2023-07-30T04:52:38;15.60;99.90
53410;DHT22;66590;50.734;4.246;2023-07-30T04:55:06;15.60;99.90
53410;DHT22;66590;50.734;4.246;2023-07-30T04:57:33;15.60;99.90
53410;DHT22;66590;50.734;4.246;2023-07-30T05:00:00;15.70;99.90
53410;DHT22;66590;50.734;4.246;2023-07-30T05:02:29;15.60;99.90
53410;DHT22;66590;50.734;4.246;2023-07-30T05:04:56;15.70;99.90
53410;DHT22;66590;50.734;4.246;2023-07-30T05:07:23;15.70;99.90
53410;DHT22;66590;50.734;4.246;2023-07-30T05:09:50;15.80;99.90
53410;DHT22;66590;50.734;4.246;2023-07-30T05:12:17;16.00;99.90
53410;DHT22;66590;50.734;4.246;2023-07-30T05:14:44;15.80;99.90
53410;DHT22;66590;50.734;4.246;2023-07-30T05:17:11;15.70;99.90
53410;DHT22;66590;50.734;4.246;2023-07-30T05:19:39;15.80;99.90
53410;DHT22;66590;50.734;4.246;2023-07-30T05:22:06;15.80;99.90
53410;DHT22;66590;50.734;4.246;2023-07-30T05:24:33;15.80;99.90
53410;DHT22;66590;50.734;4.246;2023-07-30T05:27:00;15.80;99.90
53410;DHT22;66590;50.734;4.246;2023-07-30T05:29:27;15.80;99.90
53410;DHT22;66590;50.734;4.246;2023-07-30T05:31:54;15.80;99.90
53410;DHT22;66590;50.734;4.246;2023-07-30T05:34:21;15.80;99.90
53410;DHT22;66590;50.734;4.246;2023-07-30T05:36:49;15.80;99.90
53410;DHT22;66590;50.734;4.246;2023-07-30T05:39:16;15.80;99.90
53410;DHT22;66590;50.734;4.246;2023-07-30T05:41:43;15.90;99.90
53410;DHT22;66590;50.734;4.246;2023-07-30T05:44:10;16.00;99.90
53410;DHT22;66590;50.734;4.246;2023-07-30T05:46:37;16.10;99.90
53410;DHT22;66590;50.734;4.246;2023-07-30T05:49:04;16.00;99.90
53410;DHT22;66590;50.734;4.246;2023-07-30T05:51:31;16.00;99.90
53410;DHT22;66590;50.734;4.246;2023-07-30T05:54:00;15.90;99.90
53410;DHT22;66590;50.734;4.246;2023-07-30T05:56:27;16.10;99.90
53410;DHT22;66590;50.734;4.246;2023-07-30T05:58:54;16.10;99.90
53410;DHT22;66590;50.734;4.246;2023-07-30T06:01:21;16.20;99.90
53410;DHT22;66590;50.734;4.246;2023-07-30T06:03:48;16.20;99.90
53410;DHT22;66590;50.734;4.246;2023-07-30T06:06:15;16.20;99.90
53410;DHT22;66590;50.734;4.246;2023-07-30T06:08:42;16.20;99.90
53410;DHT22;66590;50.734;4.246;2023-07-30T06:11:10;16.20;99.90
53410;DHT22;66590;50.734;4.246;2023-07-30T06:13:37;16.20;99.90
53410;DHT22;66590;50.734;4.246;2023-07-30T06:16:04;16.10;99.90
53410;DHT22;66590;50.734;4.246;2023-07-30T06:18:31;16.10;99.90
53410;DHT22;66590;50.734;4.246;2023-07-30T06:20:58;16.10;99.90
53410;DHT22;66590;50.734;4.246;2023-07-30T06:23:25;16.20;99.90
53410;DHT22;66590;50.734;4.246;2023-07-30T06:25:52;16.20;99.90
53410;DHT22;66590;50.734;4.246;2023-07-30T06:28:20;16.10;99.90
53410;DHT22;66590;50.734;4.246;2023-07-30T06:30:47;16.20;99.90
53410;DHT22;66590;50.734;4.246;2023-07-30T06:33:14;16.30;99.90
53410;DHT22;66590;50.734;4.246;2023-07-30T06:35:41;16.30;99.90
53410;DHT22;66590;50.734;4.246;2023-07-30T06:38:08;16.40;99.90
53410;DHT22;66590;50.734;4.246;2023-07-30T06:40:35;16.50;99.90
53410;DHT22;66590;50.734;4.246;2023-07-30T06:43:02;16.60;99.90
53410;DHT22;66590;50.734;4.246;2023-07-30T06:45:31;16.60;99.90
53410;DHT22;66590;50.734;4.246;2023-07-30T06:47:58;16.60;99.90
53410;DHT22;66590;50.734;4.246;2023-07-30T06:50:25;16.50;99.90
53410;DHT22;66590;50.734;4.246;2023-07-30T06:52:52;16.60;99.90
53410;DHT22;66590;50.734;4.246;2023-07-30T06:55:19;16.70;99.90
53410;DHT22;66590;50.734;4.246;2023-07-30T06:57:46;17.00;99.90
53410;DHT22;66590;50.734;4.246;2023-07-30T07:00:14;17.40;99.90
53410;DHT22;66590;50.734;4.246;2023-07-30T07:02:42;18.10;99.90
53410;DHT22;66590;50.734;4.246;2023-07-30T07:05:09;18.50;99.90
53410;DHT22;66590;50.734;4.246;2023-07-30T07:07:36;19.00;99.90
53410;DHT22;66590;50.734;4.246;2023-07-30T07:10:04;19.10;99.90
53410;DHT22;66590;50.734;4.246;2023-07-30T07:12:31;19.30;99.90
53410;DHT22;66590;50.734;4.246;2023-07-30T07:14:58;19.40;99.90
53410;DHT22;66590;50.734;4.246;2023-07-30T07:17:25;19.60;99.90
53410;DHT22;66590;50.734;4.246;2023-07-30T07:19:53;19.30;99.90
53410;DHT22;66590;50.734;4.246;2023-07-30T07:22:20;19.00;99.90
53410;DHT22;66590;50.734;4.246;2023-07-30T07:24:47;18.90;99.90
53410;DHT22;66590;50.734;4.246;2023-07-30T07:27:14;19.00;99.90
53410;DHT22;66590;50.734;4.246;2023-07-30T07:29:41;19.30;99.90
53410;DHT22;66590;50.734;4.246;2023-07-30T07:32:08;19.10;99.90
53410;DHT22;66590;50.734;4.246;2023-07-30T07:34:35;18.90;99.90
53410;DHT22;66590;50.734;4.246;2023-07-30T07:37:04;18.50;99.90
53410;DHT22;66590;50.734;4.246;2023-07-30T07:39:32;18.10;99.90
53410;DHT22;66590;50.734;4.246;2023-07-30T07:41:59;18.00;99.90
53410;DHT22;66590;50.734;4.246;2023-07-30T07:44:26;18.00;99.90
53410;DHT22;66590;50.734;4.246;2023-07-30T07:46:53;18.10;99.90
53410;DHT22;66590;50.734;4.246;2023-07-30T07:49:20;18.40;99.90
53410;DHT22;66590;50.734;4.246;2023-07-30T07:51:47;18.60;99.90
53410;DHT22;66590;50.734;4.246;2023-07-30T07:54:16;18.60;99.90
53410;DHT22;66590;50.734;4.246;2023-07-30T07:56:43;18.60;99.90
53410;DHT22;66590;50.734;4.246;2023-07-30T07:59:10;18.60;99.90
53410;DHT22;66590;50.734;4.246;2023-07-30T08:01:37;18.50;99.90
53410;DHT22;66590;50.734;4.246;2023-07-30T08:04:04;18.70;99.90
53410;DHT22;66590;50.734;4.246;2023-07-30T08:06:31;18.70;99.90
53410;DHT22;66590;50.734;4.246;2023-07-30T08:08:58;18.70;99.90
53410;DHT22;66590;50.734;4.246;2023-07-30T08:11:27;18.80;99.90
53410;DHT22;66590;50.734;4.246;2023-07-30T08:13:54;19.40;99.90
53410;DHT22;66590;50.734;4.246;2023-07-30T08:16:21;20.00;99.90
53410;DHT22;66590;50.734;4.246;2023-07-30T08:18:48;19.90;99.90
53410;DHT22;66590;50.734;4.246;2023-07-30T08:21:15;19.90;99.90
53410;DHT22;66590;50.734;4.246;2023-07-30T08:23:42;19.30;99.90
53410;DHT22;66590;50.734;4.246;2023-07-30T08:26:09;19.20;99.90
53410;DHT22;66590;50.734;4.246;2023-07-30T08:28:37;19.20;99.90
53410;DHT22;66590;50.734;4.246;2023-07-30T08:31:05;19.00;99.90
53410;DHT22;66590;50.734;4.246;2023-07-30T08:33:32;19.00;99.90
53410;DHT22;66590;50.734;4.246;2023-07-30T08:35:59;18.90;99.90
53410;DHT22;66590;50.734;4.246;2023-07-30T08:38:27;18.90;99.90
53410;DHT22;66590;50.734;4.246;2023-07-30T08:40:54;18.90;99.90
53410;DHT22;66590;50.734;4.246;2023-07-30T08:43:21;18.90;99.90
53410;DHT22;66590;50.734;4.246;2023-07-30T08:45:50;18.90;99.90
53410;DHT22;66590;50.734;4.246;2023-07-30T08:48:17;19.30;99.90
53410;DHT22;66590;50.734;4.246;2023-07-30T08:50:44;19.50;99.90
53410;DHT22;66590;50.734;4.246;2023-07-30T08:53:12;19.40;99.90
53410;DHT22;66590;50.734;4.246;2023-07-30T08:55:40;19.20;99.90
53410;DHT22;66590;50.734;4.246;2023-07-30T08:58:09;18.90;99.90
53410;DHT22;66590;50.734;4.246;2023-07-30T09:00:38;18.80;99.90
53410;DHT22;66590;50.734;4.246;2023-07-30T09:03:08;18.70;99.90
53410;DHT22;66590;50.734;4.246;2023-07-30T09:05:37;18.50;99.90
53410;DHT22;66590;50.734;4.246;2023-07-30T09:08:04;18.50;99.90
53410;DHT22;66590;50.734;4.246;2023-07-30T09:10:34;18.50;99.90
53410;DHT22;66590;50.734;4.246;2023-07-30T09:13:03;18.50;99.90
53410;DHT22;66590;50.734;4.246;2023-07-30T09:15:31;18.70;99.90
53410;DHT22;66590;50.734;4.246;2023-07-30T09:17:58;18.70;99.90
53410;DHT22;66590;50.734;4.246;2023-07-30T09:20:27;18.60;99.90
53410;DHT22;66590;50.734;4.246;2023-07-30T09:22:56;18.60;99.90
53410;DHT22;66590;50.734;4.246;2023-07-30T09:25:23;18.70;99.90
53410;DHT22;66590;50.734;4.246;2023-07-30T09:27:51;18.90;99.90
53410;DHT22;66590;50.734;4.246;2023-07-30T09:30:22;19.10;99.90
53410;DHT22;66590;50.734;4.246;2023-07-30T09:32:51;19.90;99.90
53410;DHT22;66590;50.734;4.246;2023-07-30T09:35:19;20.10;99.90
53410;DHT22;66590;50.734;4.246;2023-07-30T09:37:48;20.30;99.90
53410;DHT22;66590;50.734;4.246;2023-07-30T09:40:16;20.10;99.90
53410;DHT22;66590;50.734;4.246;2023-07-30T09:42:45;20.30;99.90
53410;DHT22;66590;50.734;4.246;2023-07-30T09:45:17;20.20;99.90
53410;DHT22;66590;50.734;4.246;2023-07-30T09:47:46;19.80;99.90
53410;DHT22;66590;50.734;4.246;2023-07-30T09:50:14;19.80;99.90
53410;DHT22;66590;50.734;4.246;2023-07-30T09:52:41;19.80;99.90
53410;DHT22;66590;50.734;4.246;2023-07-30T09:55:10;19.60;99.90
53410;DHT22;66590;50.734;4.246;2023-07-30T09:57:37;19.50;99.90
53410;DHT22;66590;50.734;4.246;2023-07-30T10:00:06;19.30;99.90
53410;DHT22;66590;50.734;4.246;2023-07-30T10:02:37;19.40;99.90
53410;DHT22;66590;50.734;4.246;2023-07-30T10:05:10;19.50;99.90
53410;DHT22;66590;50.734;4.246;2023-07-30T10:07:38;19.60;99.90
53410;DHT22;66590;50.734;4.246;2023-07-30T10:10:09;19.90;99.90
53410;DHT22;66590;50.734;4.246;2023-07-30T10:12:37;19.80;99.90
53410;DHT22;66590;50.734;4.246;2023-07-30T10:15:06;20.10;99.90
53410;DHT22;66590;50.734;4.246;2023-07-30T10:17:34;20.10;99.90
53410;DHT22;66590;50.734;4.246;2023-07-30T10:20:22;20.30;99.90
53410;DHT22;66590;50.734;4.246;2023-07-30T10:22:53;20.80;99.90
53410;DHT22;66590;50.734;4.246;2023-07-30T10:25:25;20.40;99.90
53410;DHT22;66590;50.734;4.246;2023-07-30T10:27:52;20.40;99.90
53410;DHT22;66590;50.734;4.246;2023-07-30T10:30:20;20.40;99.90
53410;DHT22;66590;50.734;4.246;2023-07-30T10:33:03;20.40;99.90
53410;DHT22;66590;50.734;4.246;2023-07-30T10:35:42;20.50;99.90
53410;DHT22;66590;50.734;4.246;2023-07-30T10:38:14;20.20;99.90
53410;DHT22;66590;50.734;4.246;2023-07-30T10:40:59;20.00;99.90
53410;DHT22;66590;50.734;4.246;2023-07-30T10:43:28;19.90;99.90
53410;DHT22;66590;50.734;4.246;2023-07-30T10:45:55;19.50;99.90
53410;DHT22;66590;50.734;4.246;2023-07-30T10:48:31;19.50;99.90
53410;DHT22;66590;50.734;4.246;2023-07-30T10:50:58;19.60;99.90
53410;DHT22;66590;50.734;4.246;2023-07-30T10:53:25;19.80;99.90
53410;DHT22;66590;50.734;4.246;2023-07-30T10:55:54;19.70;99.90
53410;DHT22;66590;50.734;4.246;2023-07-30T10:58:21;20.00;99.90
53410;DHT22;66590;50.734;4.246;2023-07-30T11:00:51;20.00;99.90
53410;DHT22;66590;50.734;4.246;2023-07-30T11:03:18;20.20;99.90
53410;DHT22;66590;50.734;4.246;2023-07-30T11:05:46;20.40;99.90
53410;DHT22;66590;50.734;4.246;2023-07-30T11:08:13;20.90;99.90
53410;DHT22;66590;50.734;4.246;2023-07-30T11:10:45;21.40;99.90
53410;DHT22;66590;50.734;4.246;2023-07-30T11:13:13;21.80;99.90
53410;DHT22;66590;50.734;4.246;2023-07-30T11:15:41;21.90;99.90
53410;DHT22;66590;50.734;4.246;2023-07-30T11:18:08;22.00;99.90
53410;DHT22;66590;50.734;4.246;2023-07-30T11:20:35;22.40;99.90
53410;DHT22;66590;50.734;4.246;2023-07-30T11:23:02;22.40;99.90
53410;DHT22;66590;50.734;4.246;2023-07-30T11:25:29;22.30;99.90
53410;DHT22;66590;50.734;4.246;2023-07-30T11:27:56;22.40;99.90
53410;DHT22;66590;50.734;4.246;2023-07-30T11:30:25;22.40;99.90
53410;DHT22;66590;50.734;4.246;2023-07-30T11:32:52;22.10;99.90
53410;DHT22;66590;50.734;4.246;2023-07-30T11:35:19;22.50;99.90
53410;DHT22;66590;50.734;4.246;2023-07-30T11:37:46;22.30;99.90
53410;DHT22;66590;50.734;4.246;2023-07-30T11:40:13;22.20;99.90
53410;DHT22;66590;50.734;4.246;2023-07-30T11:42:41;22.30;99.90
53410;DHT22;66590;50.734;4.246;2023-07-30T11:45:21;22.30;99.90
53410;DHT22;66590;50.734;4.246;2023-07-30T11:47:50;22.00;99.90
53410;DHT22;66590;50.734;4.246;2023-07-30T11:50:17;21.90;99.90
53410;DHT22;66590;50.734;4.246;2023-07-30T11:52:54;22.10;99.90
53410;DHT22;66590;50.734;4.246;2023-07-30T11:55:22;22.20;99.90
53410;DHT22;66590;50.734;4.246;2023-07-30T11:57:51;22.40;99.90
53410;DHT22;66590;50.734;4.246;2023-07-30T12:00:23;21.90;99.90
53410;DHT22;66590;50.734;4.246;2023-07-30T12:02:53;21.60;99.90
53410;DHT22;66590;50.734;4.246;2023-07-30T12:05:32;21.30;99.90
53410;DHT22;66590;50.734;4.246;2023-07-30T12:07:59;21.30;99.90
53410;DHT22;66590;50.734;4.246;2023-07-30T12:10:26;21.30;99.90
53410;DHT22;66590;50.734;4.246;2023-07-30T12:12:53;21.30;99.90
53410;DHT22;66590;50.734;4.246;2023-07-30T12:15:20;21.90;99.90
53410;DHT22;66590;50.734;4.246;2023-07-30T12:17:47;22.40;99.90
53410;DHT22;66590;50.734;4.246;2023-07-30T12:20:16;22.70;99.90
53410;DHT22;66590;50.734;4.246;2023-07-30T12:22:43;22.00;99.90
53410;DHT22;66590;50.734;4.246;2023-07-30T12:25:09;22.20;99.90
53410;DHT22;66590;50.734;4.246;2023-07-30T12:27:37;22.30;99.90
53410;DHT22;66590;50.734;4.246;2023-07-30T12:30:05;22.60;99.90
53410;DHT22;66590;50.734;4.246;2023-07-30T12:32:32;22.80;99.90
53410;DHT22;66590;50.734;4.246;2023-07-30T12:34:59;22.80;99.90
53410;DHT22;66590;50.734;4.246;2023-07-30T12:37:27;22.60;99.90
53410;DHT22;66590;50.734;4.246;2023-07-30T12:39:54;22.60;99.90
53410;DHT22;66590;50.734;4.246;2023-07-30T12:42:21;22.90;99.90
53410;DHT22;66590;50.734;4.246;2023-07-30T12:44:48;22.60;99.90
53410;DHT22;66590;50.734;4.246;2023-07-30T12:47:15;22.40;99.90
53410;DHT22;66590;50.734;4.246;2023-07-30T12:49:42;22.30;99.90
53410;DHT22;66590;50.734;4.246;2023-07-30T12:52:09;21.90;99.90
53410;DHT22;66590;50.734;4.246;2023-07-30T12:54:38;22.10;99.90
53410;DHT22;66590;50.734;4.246;2023-07-30T12:57:05;22.00;99.90
53410;DHT22;66590;50.734;4.246;2023-07-30T12:59:32;21.80;99.90
53410;DHT22;66590;50.734;4.246;2023-07-30T13:01:59;22.20;99.90
53410;DHT22;66590;50.734;4.246;2023-07-30T13:04:26;22.50;99.90
53410;DHT22;66590;50.734;4.246;2023-07-30T13:06:53;22.60;99.90
53410;DHT22;66590;50.734;4.246;2023-07-30T13:09:20;22.70;99.90
53410;DHT22;66590;50.734;4.246;2023-07-30T13:11:48;22.50;99.90
53410;DHT22;66590;50.734;4.246;2023-07-30T13:14:15;22.70;99.90
53410;DHT22;66590;50.734;4.246;2023-07-30T13:16:43;22.80;99.90
53410;DHT22;66590;50.734;4.246;2023-07-30T13:19:09;22.60;99.90
53410;DHT22;66590;50.734;4.246;2023-07-30T13:21:37;22.50;99.90
53410;DHT22;66590;50.734;4.246;2023-07-30T13:24:04;22.60;99.90
53410;DHT22;66590;50.734;4.246;2023-07-30T13:26:31;22.70;99.90
53410;DHT22;66590;50.734;4.246;2023-07-30T13:29:00;23.10;99.90
53410;DHT22;66590;50.734;4.246;2023-07-30T13:31:27;23.20;99.90
53410;DHT22;66590;50.734;4.246;2023-07-30T13:33:54;22.80;99.90
53410;DHT22;66590;50.734;4.246;2023-07-30T13:36:21;22.80;99.90
53410;DHT22;66590;50.734;4.246;2023-07-30T13:38:48;22.90;99.90
53410;DHT22;66590;50.734;4.246;2023-07-30T13:41:15;22.80;99.90
53410;DHT22;66590;50.734;4.246;2023-07-30T13:43:42;22.60;99.90
53410;DHT22;66590;50.734;4.246;2023-07-30T13:46:10;23.00;99.90
53410;DHT22;66590;50.734;4.246;2023-07-30T13:48:37;22.90;99.90
53410;DHT22;66590;50.734;4.246;2023-07-30T13:51:04;22.50;99.90
53410;DHT22;66590;50.734;4.246;2023-07-30T13:53:31;22.40;99.90
53410;DHT22;66590;50.734;4.246;2023-07-30T13:55:58;22.20;99.90
53410;DHT22;66590;50.734;4.246;2023-07-30T13:58:25;22.30;99.90
53410;DHT22;66590;50.734;4.246;2023-07-30T14:00:53;22.20;99.90
53410;DHT22;66590;50.734;4.246;2023-07-30T14:03:22;22.20;99.90
53410;DHT22;66590;50.734;4.246;2023-07-30T14:05:49;22.30;99.90
53410;DHT22;66590;50.734;4.246;2023-07-30T14:08:16;22.30;99.90
53410;DHT22;66590;50.734;4.246;2023-07-30T14:10:43;22.20;99.90
53410;DHT22;66590;50.734;4.246;2023-07-30T14:13:10;22.40;99.90
53410;DHT22;66590;50.734;4.246;2023-07-30T14:15:38;22.60;99.90
53410;DHT22;66590;50.734;4.246;2023-07-30T14:18:05;22.20;99.90
53410;DHT22;66590;50.734;4.246;2023-07-30T14:20:33;22.10;99.90
53410;DHT22;66590;50.734;4.246;2023-07-30T14:23:00;22.40;99.90
53410;DHT22;66590;50.734;4.246;2023-07-30T14:25:27;22.30;99.90
53410;DHT22;66590;50.734;4.246;2023-07-30T14:27:54;22.50;99.90
53410;DHT22;66590;50.734;4.246;2023-07-30T14:30:21;22.40;99.90
53410;DHT22;66590;50.734;4.246;2023-07-30T14:32:48;22.20;99.90
53410;DHT22;66590;50.734;4.246;2023-07-30T14:35:15;22.10;99.90
53410;DHT22;66590;50.734;4.246;2023-07-30T14:37:44;22.00;99.90
53410;DHT22;66590;50.734;4.246;2023-07-30T14:40:11;22.00;99.90
53410;DHT22;66590;50.734;4.246;2023-07-30T14:42:38;22.10;99.90
53410;DHT22;66590;50.734;4.246;2023-07-30T14:45:06;22.00;99.90
53410;DHT22;66590;50.734;4.246;2023-07-30T14:47:33;21.80;99.90
53410;DHT22;66590;50.734;4.246;2023-07-30T14:50:00;21.30;99.90
53410;DHT22;66590;50.734;4.246;2023-07-30T14:52:27;20.80;99.90
53410;DHT22;66590;50.734;4.246;2023-07-30T14:54:56;20.70;99.90
53410;DHT22;66590;50.734;4.246;2023-07-30T14:57:23;20.70;99.90
53410;DHT22;66590;50.734;4.246;2023-07-30T14:59:50;20.70;99.90
53410;DHT22;66590;50.734;4.246;2023-07-30T15:02:17;20.70;99.90
53410;DHT22;66590;50.734;4.246;2023-07-30T15:04:44;20.90;99.90
53410;DHT22;66590;50.734;4.246;2023-07-30T15:07:11;20.80;99.90
53410;DHT22;66590;50.734;4.246;2023-07-30T15:09:37;20.70;99.90
53410;DHT22;66590;50.734;4.246;2023-07-30T15:12:06;20.60;99.90
53410;DHT22;66590;50.734;4.246;2023-07-30T15:14:33;20.60;99.90
53410;DHT22;66590;50.734;4.246;2023-07-30T15:17:00;20.60;99.90
53410;DHT22;66590;50.734;4.246;2023-07-30T15:19:30;20.50;99.90
53410;DHT22;66590;50.734;4.246;2023-07-30T15:21:57;20.40;99.90
53410;DHT22;66590;50.734;4.246;2023-07-30T15:24:24;20.30;99.90
53410;DHT22;66590;50.734;4.246;2023-07-30T15:26:54;20.30;99.90
53410;DHT22;66590;50.734;4.246;2023-07-30T15:29:23;20.50;99.90
53410;DHT22;66590;50.734;4.246;2023-07-30T15:31:50;20.40;99.90